If you wish to contribute or participate in the discussions about articles you are invited to join SKYbrary as a registered user

 Actions

Argyle Airport

From SKYbrary Wiki

YARG
Airport
ICAO: YARG – IATA: GYL
Summary
Name Argyle Airport
Region Asia and Pacific
Territory Australia AU.gif
Location Argyle, Western Australia
Serving Argyle
Elevation 159.106 m
522 ft
522 ft159.106 m
Type small airport
Coordinates 16° 38' 12.84" S, 128° 27' 3.60" E
Runways
Designator Length Width Surface ROPS
1/19 2300 m7,545.932 ft
30 m98.425 ft
ASP /


METAR
Observation YARG 131200Z AUTO 11003KT 9999 // SCT060 SCT091 29/21 Q1006
Station Argyle Airport
Date/Time 13 December 2018 12:00:00
Wind direction 110°
Wind speed 03 kts
Lowest cloud amount scattered clouds
Temperature 29°C
Dew point 21°C
Humidity 62%
QNH 1006 hPa
Weather condition n/a